sensor_id;sensor_type;location;lat;lon;timestamp;P1;durP1;ratioP1;P2;durP2;ratioP2
61344;SDS011;47216;42.656;23.232;2023-08-31T00:01:55;3.10;;;1.60;;
61344;SDS011;47216;42.656;23.232;2023-08-31T00:04:23;4.23;;;2.10;;
61344;SDS011;47216;42.656;23.232;2023-08-31T00:06:50;2.57;;;1.40;;
61344;SDS011;47216;42.656;23.232;2023-08-31T00:09:16;3.40;;;1.70;;
61344;SDS011;47216;42.656;23.232;2023-08-31T00:11:44;2.53;;;1.73;;
61344;SDS011;47216;42.656;23.232;2023-08-31T00:14:11;2.43;;;1.53;;
61344;SDS011;47216;42.656;23.232;2023-08-31T00:16:37;2.27;;;1.57;;
61344;SDS011;47216;42.656;23.232;2023-08-31T00:19:04;3.03;;;1.40;;
61344;SDS011;47216;42.656;23.232;2023-08-31T00:21:32;3.33;;;1.60;;
61344;SDS011;47216;42.656;23.232;2023-08-31T00:23:59;4.57;;;1.83;;
61344;SDS011;47216;42.656;23.232;2023-08-31T00:26:26;4.17;;;2.00;;
61344;SDS011;47216;42.656;23.232;2023-08-31T00:28:54;5.33;;;1.80;;
61344;SDS011;47216;42.656;23.232;2023-08-31T00:31:21;4.00;;;1.57;;
61344;SDS011;47216;42.656;23.232;2023-08-31T00:33:47;2.93;;;1.40;;
61344;SDS011;47216;42.656;23.232;2023-08-31T00:36:14;3.03;;;1.97;;
61344;SDS011;47216;42.656;23.232;2023-08-31T00:38:44;2.50;;;1.53;;
61344;SDS011;47216;42.656;23.232;2023-08-31T00:41:11;4.63;;;1.70;;
61344;SDS011;47216;42.656;23.232;2023-08-31T00:43:38;3.33;;;2.00;;
61344;SDS011;47216;42.656;23.232;2023-08-31T00:46:05;2.20;;;1.37;;
61344;SDS011;47216;42.656;23.232;2023-08-31T00:48:32;3.80;;;1.50;;
61344;SDS011;47216;42.656;23.232;2023-08-31T00:50:59;5.30;;;1.43;;
61344;SDS011;47216;42.656;23.232;2023-08-31T00:53:26;3.33;;;1.40;;
61344;SDS011;47216;42.656;23.232;2023-08-31T00:55:55;3.33;;;1.50;;
61344;SDS011;47216;42.656;23.232;2023-08-31T00:58:22;3.33;;;1.90;;
61344;SDS011;47216;42.656;23.232;2023-08-31T01:00:50;3.10;;;1.87;;
61344;SDS011;47216;42.656;23.232;2023-08-31T01:03:31;3.70;;;1.57;;
61344;SDS011;47216;42.656;23.232;2023-08-31T01:06:07;3.10;;;1.80;;
61344;SDS011;47216;42.656;23.232;2023-08-31T01:08:41;2.30;;;1.27;;
61344;SDS011;47216;42.656;23.232;2023-08-31T01:11:18;3.10;;;1.43;;
61344;SDS011;47216;42.656;23.232;2023-08-31T01:13:51;3.30;;;1.70;;
61344;SDS011;47216;42.656;23.232;2023-08-31T01:16:23;4.17;;;1.67;;
61344;SDS011;47216;42.656;23.232;2023-08-31T01:18:51;9.40;;;1.90;;
61344;SDS011;47216;42.656;23.232;2023-08-31T01:21:20;3.43;;;1.70;;
61344;SDS011;47216;42.656;23.232;2023-08-31T01:23:55;4.53;;;1.53;;
61344;SDS011;47216;42.656;23.232;2023-08-31T01:26:24;3.07;;;1.90;;
61344;SDS011;47216;42.656;23.232;2023-08-31T01:28:51;2.30;;;1.70;;
61344;SDS011;47216;42.656;23.232;2023-08-31T01:31:19;3.83;;;1.83;;
61344;SDS011;47216;42.656;23.232;2023-08-31T01:33:46;3.03;;;1.60;;
61344;SDS011;47216;42.656;23.232;2023-08-31T01:36:15;3.40;;;1.60;;
61344;SDS011;47216;42.656;23.232;2023-08-31T01:38:48;3.43;;;1.90;;
61344;SDS011;47216;42.656;23.232;2023-08-31T01:41:22;3.20;;;1.60;;
61344;SDS011;47216;42.656;23.232;2023-08-31T01:43:52;3.70;;;1.90;;
61344;SDS011;47216;42.656;23.232;2023-08-31T01:46:19;3.23;;;1.87;;
61344;SDS011;47216;42.656;23.232;2023-08-31T01:48:47;3.07;;;1.80;;
61344;SDS011;47216;42.656;23.232;2023-08-31T01:51:13;4.90;;;1.80;;
61344;SDS011;47216;42.656;23.232;2023-08-31T01:53:42;7.30;;;1.70;;
61344;SDS011;47216;42.656;23.232;2023-08-31T01:56:09;2.60;;;1.70;;
61344;SDS011;47216;42.656;23.232;2023-08-31T01:58:37;3.33;;;1.50;;
61344;SDS011;47216;42.656;23.232;2023-08-31T02:01:04;3.63;;;1.60;;
61344;SDS011;47216;42.656;23.232;2023-08-31T02:03:31;2.70;;;1.63;;
61344;SDS011;47216;42.656;23.232;2023-08-31T02:05:57;2.23;;;1.37;;
61344;SDS011;47216;42.656;23.232;2023-08-31T02:08:24;3.47;;;1.70;;
61344;SDS011;47216;42.656;23.232;2023-08-31T02:10:51;3.00;;;1.47;;
61344;SDS011;47216;42.656;23.232;2023-08-31T02:13:19;3.07;;;1.80;;
61344;SDS011;47216;42.656;23.232;2023-08-31T02:15:47;4.20;;;1.70;;
61344;SDS011;47216;42.656;23.232;2023-08-31T02:18:17;3.43;;;1.60;;
61344;SDS011;47216;42.656;23.232;2023-08-31T02:20:46;5.57;;;1.73;;
61344;SDS011;47216;42.656;23.232;2023-08-31T02:23:13;3.10;;;1.30;;
61344;SDS011;47216;42.656;23.232;2023-08-31T02:25:40;3.50;;;1.90;;
61344;SDS011;47216;42.656;23.232;2023-08-31T02:28:07;3.53;;;1.80;;
61344;SDS011;47216;42.656;23.232;2023-08-31T02:30:34;5.20;;;1.80;;
61344;SDS011;47216;42.656;23.232;2023-08-31T02:33:02;4.50;;;1.67;;
61344;SDS011;47216;42.656;23.232;2023-08-31T02:35:29;3.83;;;1.80;;
61344;SDS011;47216;42.656;23.232;2023-08-31T02:37:56;2.37;;;1.57;;
61344;SDS011;47216;42.656;23.232;2023-08-31T02:40:23;3.77;;;1.70;;
61344;SDS011;47216;42.656;23.232;2023-08-31T02:42:50;4.40;;;2.00;;
61344;SDS011;47216;42.656;23.232;2023-08-31T02:45:17;3.77;;;1.63;;
61344;SDS011;47216;42.656;23.232;2023-08-31T02:47:44;2.93;;;1.70;;
61344;SDS011;47216;42.656;23.232;2023-08-31T02:50:12;5.43;;;1.87;;
61344;SDS011;47216;42.656;23.232;2023-08-31T02:52:39;3.03;;;1.60;;
61344;SDS011;47216;42.656;23.232;2023-08-31T02:55:07;3.73;;;2.00;;
61344;SDS011;47216;42.656;23.232;2023-08-31T02:57:35;3.63;;;2.17;;
61344;SDS011;47216;42.656;23.232;2023-08-31T03:00:02;5.23;;;2.10;;
61344;SDS011;47216;42.656;23.232;2023-08-31T03:02:34;5.00;;;1.57;;
61344;SDS011;47216;42.656;23.232;2023-08-31T03:05:01;5.10;;;1.83;;
61344;SDS011;47216;42.656;23.232;2023-08-31T03:07:29;3.97;;;1.63;;
61344;SDS011;47216;42.656;23.232;2023-08-31T03:09:56;2.73;;;1.93;;
61344;SDS011;47216;42.656;23.232;2023-08-31T03:12:23;3.03;;;1.73;;
61344;SDS011;47216;42.656;23.232;2023-08-31T03:14:49;4.00;;;1.90;;
61344;SDS011;47216;42.656;23.232;2023-08-31T03:17:16;3.87;;;1.70;;
61344;SDS011;47216;42.656;23.232;2023-08-31T03:19:43;4.70;;;1.90;;
61344;SDS011;47216;42.656;23.232;2023-08-31T03:22:10;3.93;;;1.80;;
61344;SDS011;47216;42.656;23.232;2023-08-31T03:24:38;5.37;;;1.90;;
61344;SDS011;47216;42.656;23.232;2023-08-31T03:27:05;4.50;;;1.67;;
61344;SDS011;47216;42.656;23.232;2023-08-31T03:29:32;3.47;;;2.00;;
61344;SDS011;47216;42.656;23.232;2023-08-31T03:31:59;4.10;;;2.00;;
61344;SDS011;47216;42.656;23.232;2023-08-31T03:34:28;3.90;;;1.80;;
61344;SDS011;47216;42.656;23.232;2023-08-31T03:36:55;5.97;;;1.97;;
61344;SDS011;47216;42.656;23.232;2023-08-31T03:39:23;4.47;;;1.80;;
61344;SDS011;47216;42.656;23.232;2023-08-31T03:41:51;3.10;;;1.90;;
61344;SDS011;47216;42.656;23.232;2023-08-31T03:44:17;3.43;;;1.90;;
61344;SDS011;47216;42.656;23.232;2023-08-31T03:46:44;4.10;;;2.03;;
61344;SDS011;47216;42.656;23.232;2023-08-31T03:49:11;6.27;;;2.23;;
61344;SDS011;47216;42.656;23.232;2023-08-31T03:51:37;5.23;;;2.27;;
61344;SDS011;47216;42.656;23.232;2023-08-31T03:54:04;3.63;;;1.87;;
61344;SDS011;47216;42.656;23.232;2023-08-31T03:56:31;3.70;;;2.23;;
61344;SDS011;47216;42.656;23.232;2023-08-31T03:59:01;3.20;;;2.00;;
61344;SDS011;47216;42.656;23.232;2023-08-31T04:01:29;7.37;;;1.90;;
61344;SDS011;47216;42.656;23.232;2023-08-31T04:03:56;10.40;;;2.00;;
61344;SDS011;47216;42.656;23.232;2023-08-31T04:06:23;3.20;;;1.90;;
61344;SDS011;47216;42.656;23.232;2023-08-31T04:08:50;5.47;;;1.77;;
61344;SDS011;47216;42.656;23.232;2023-08-31T04:11:16;3.97;;;1.90;;
61344;SDS011;47216;42.656;23.232;2023-08-31T04:13:43;5.00;;;1.80;;
61344;SDS011;47216;42.656;23.232;2023-08-31T04:16:11;2.70;;;1.30;;
61344;SDS011;47216;42.656;23.232;2023-08-31T04:18:38;4.73;;;1.83;;
61344;SDS011;47216;42.656;23.232;2023-08-31T04:21:05;3.93;;;1.50;;
61344;SDS011;47216;42.656;23.232;2023-08-31T04:23:32;5.87;;;1.70;;
61344;SDS011;47216;42.656;23.232;2023-08-31T04:25:59;3.53;;;1.50;;
61344;SDS011;47216;42.656;23.232;2023-08-31T04:28:25;4.27;;;1.57;;
61344;SDS011;47216;42.656;23.232;2023-08-31T04:30:52;3.50;;;1.60;;
61344;SDS011;47216;42.656;23.232;2023-08-31T04:33:20;4.77;;;1.60;;
61344;SDS011;47216;42.656;23.232;2023-08-31T04:35:49;2.87;;;1.50;;
61344;SDS011;47216;42.656;23.232;2023-08-31T04:38:16;7.43;;;2.23;;
61344;SDS011;47216;42.656;23.232;2023-08-31T04:40:43;5.93;;;2.30;;
61344;SDS011;47216;42.656;23.232;2023-08-31T04:43:10;5.67;;;1.90;;
61344;SDS011;47216;42.656;23.232;2023-08-31T04:45:36;5.10;;;2.10;;
61344;SDS011;47216;42.656;23.232;2023-08-31T04:48:03;6.77;;;1.87;;
61344;SDS011;47216;42.656;23.232;2023-08-31T04:50:32;3.07;;;1.87;;
61344;SDS011;47216;42.656;23.232;2023-08-31T04:52:58;4.13;;;1.87;;
61344;SDS011;47216;42.656;23.232;2023-08-31T04:55:25;9.57;;;2.20;;
61344;SDS011;47216;42.656;23.232;2023-08-31T04:57:52;4.97;;;1.90;;
61344;SDS011;47216;42.656;23.232;2023-08-31T05:00:19;3.63;;;2.00;;
61344;SDS011;47216;42.656;23.232;2023-08-31T05:02:46;8.03;;;2.33;;
61344;SDS011;47216;42.656;23.232;2023-08-31T05:05:12;6.73;;;2.07;;
61344;SDS011;47216;42.656;23.232;2023-08-31T05:07:40;3.50;;;1.70;;
61344;SDS011;47216;42.656;23.232;2023-08-31T05:10:08;6.30;;;2.90;;
61344;SDS011;47216;42.656;23.232;2023-08-31T05:12:36;5.07;;;1.97;;
61344;SDS011;47216;42.656;23.232;2023-08-31T05:15:03;6.07;;;1.83;;
61344;SDS011;47216;42.656;23.232;2023-08-31T05:17:30;6.93;;;2.00;;
61344;SDS011;47216;42.656;23.232;2023-08-31T05:19:57;2.60;;;1.53;;
61344;SDS011;47216;42.656;23.232;2023-08-31T05:22:24;3.10;;;1.70;;
61344;SDS011;47216;42.656;23.232;2023-08-31T05:24:52;8.03;;;2.20;;
61344;SDS011;47216;42.656;23.232;2023-08-31T05:27:19;4.53;;;1.83;;
61344;SDS011;47216;42.656;23.232;2023-08-31T05:29:46;5.57;;;1.77;;
61344;SDS011;47216;42.656;23.232;2023-08-31T05:32:12;7.63;;;1.90;;
61344;SDS011;47216;42.656;23.232;2023-08-31T05:34:39;4.87;;;1.90;;
61344;SDS011;47216;42.656;23.232;2023-08-31T05:37:06;5.63;;;2.10;;
61344;SDS011;47216;42.656;23.232;2023-08-31T05:39:33;5.37;;;2.13;;
61344;SDS011;47216;42.656;23.232;2023-08-31T05:42:01;4.23;;;1.80;;
61344;SDS011;47216;42.656;23.232;2023-08-31T05:44:28;7.47;;;2.30;;
61344;SDS011;47216;42.656;23.232;2023-08-31T05:46:55;4.20;;;1.73;;
61344;SDS011;47216;42.656;23.232;2023-08-31T05:49:21;6.10;;;2.00;;
61344;SDS011;47216;42.656;23.232;2023-08-31T05:51:49;5.23;;;2.03;;
61344;SDS011;47216;42.656;23.232;2023-08-31T05:54:15;3.43;;;2.00;;
61344;SDS011;47216;42.656;23.232;2023-08-31T05:56:42;6.40;;;1.80;;
61344;SDS011;47216;42.656;23.232;2023-08-31T05:59:10;4.90;;;1.73;;
61344;SDS011;47216;42.656;23.232;2023-08-31T06:01:37;4.47;;;1.57;;
61344;SDS011;47216;42.656;23.232;2023-08-31T06:04:04;9.73;;;2.17;;
61344;SDS011;47216;42.656;23.232;2023-08-31T06:06:31;4.00;;;1.58;;
61344;SDS011;47216;42.656;23.232;2023-08-31T06:08:58;5.07;;;1.75;;
61344;SDS011;47216;42.656;23.232;2023-08-31T06:11:25;5.88;;;1.80;;
61344;SDS011;47216;42.656;23.232;2023-08-31T06:13:52;5.82;;;1.98;;
61344;SDS011;47216;42.656;23.232;2023-08-31T06:16:20;4.68;;;1.80;;
61344;SDS011;47216;42.656;23.232;2023-08-31T06:18:48;6.00;;;2.20;;
61344;SDS011;47216;42.656;23.232;2023-08-31T06:21:14;5.65;;;1.92;;
61344;SDS011;47216;42.656;23.232;2023-08-31T06:23:41;3.15;;;1.42;;
61344;SDS011;47216;42.656;23.232;2023-08-31T06:26:08;4.88;;;1.60;;
61344;SDS011;47216;42.656;23.232;2023-08-31T06:28:35;5.90;;;1.40;;
61344;SDS011;47216;42.656;23.232;2023-08-31T06:31:01;11.20;;;1.95;;
61344;SDS011;47216;42.656;23.232;2023-08-31T06:33:30;3.78;;;1.70;;
61344;SDS011;47216;42.656;23.232;2023-08-31T06:35:57;3.85;;;1.85;;
61344;SDS011;47216;42.656;23.232;2023-08-31T06:38:24;10.15;;;1.80;;
61344;SDS011;47216;42.656;23.232;2023-08-31T06:40:50;8.57;;;1.75;;
61344;SDS011;47216;42.656;23.232;2023-08-31T06:43:19;5.43;;;2.03;;
61344;SDS011;47216;42.656;23.232;2023-08-31T06:45:46;11.27;;;1.92;;
61344;SDS011;47216;42.656;23.232;2023-08-31T06:48:13;4.85;;;1.67;;
61344;SDS011;47216;42.656;23.232;2023-08-31T06:50:41;4.43;;;1.98;;
61344;SDS011;47216;42.656;23.232;2023-08-31T06:53:08;3.80;;;1.52;;
61344;SDS011;47216;42.656;23.232;2023-08-31T06:55:35;4.57;;;1.10;;
61344;SDS011;47216;42.656;23.232;2023-08-31T06:58:02;2.92;;;1.20;;
61344;SDS011;47216;42.656;23.232;2023-08-31T07:00:29;1.77;;;1.15;;
61344;SDS011;47216;42.656;23.232;2023-08-31T07:02:57;4.45;;;1.60;;
61344;SDS011;47216;42.656;23.232;2023-08-31T07:05:24;3.47;;;1.45;;
61344;SDS011;47216;42.656;23.232;2023-08-31T07:07:54;4.72;;;1.27;;
61344;SDS011;47216;42.656;23.232;2023-08-31T07:10:21;3.05;;;1.33;;
61344;SDS011;47216;42.656;23.232;2023-08-31T07:12:48;3.17;;;1.20;;
61344;SDS011;47216;42.656;23.232;2023-08-31T07:15:15;2.60;;;1.25;;
61344;SDS011;47216;42.656;23.232;2023-08-31T07:17:42;3.15;;;1.33;;
61344;SDS011;47216;42.656;23.232;2023-08-31T07:20:09;4.38;;;1.40;;
61344;SDS011;47216;42.656;23.232;2023-08-31T07:22:37;2.25;;;1.27;;
61344;SDS011;47216;42.656;23.232;2023-08-31T07:25:07;3.35;;;1.35;;
61344;SDS011;47216;42.656;23.232;2023-08-31T07:27:34;2.50;;;1.27;;
61344;SDS011;47216;42.656;23.232;2023-08-31T07:30:01;4.28;;;1.30;;
61344;SDS011;47216;42.656;23.232;2023-08-31T07:32:29;2.35;;;1.27;;
61344;SDS011;47216;42.656;23.232;2023-08-31T07:34:56;2.85;;;1.23;;
61344;SDS011;47216;42.656;23.232;2023-08-31T07:37:22;5.95;;;1.52;;
61344;SDS011;47216;42.656;23.232;2023-08-31T07:39:49;1.80;;;1.30;;
61344;SDS011;47216;42.656;23.232;2023-08-31T07:42:18;3.88;;;1.77;;
61344;SDS011;47216;42.656;23.232;2023-08-31T07:44:45;4.38;;;1.50;;
61344;SDS011;47216;42.656;23.232;2023-08-31T07:47:11;3.70;;;1.40;;
61344;SDS011;47216;42.656;23.232;2023-08-31T07:49:38;3.92;;;1.83;;
61344;SDS011;47216;42.656;23.232;2023-08-31T07:52:05;5.50;;;1.60;;
61344;SDS011;47216;42.656;23.232;2023-08-31T07:54:32;3.67;;;1.73;;
61344;SDS011;47216;42.656;23.232;2023-08-31T07:56:59;3.97;;;1.70;;
61344;SDS011;47216;42.656;23.232;2023-08-31T07:59:27;7.03;;;2.45;;
61344;SDS011;47216;42.656;23.232;2023-08-31T08:01:54;4.65;;;1.65;;
61344;SDS011;47216;42.656;23.232;2023-08-31T08:04:20;5.30;;;2.80;;
61344;SDS011;47216;42.656;23.232;2023-08-31T08:06:49;3.63;;;1.60;;
61344;SDS011;47216;42.656;23.232;2023-08-31T08:09:16;4.28;;;1.85;;
61344;SDS011;47216;42.656;23.232;2023-08-31T08:11:43;9.80;;;2.15;;
61344;SDS011;47216;42.656;23.232;2023-08-31T08:14:10;7.15;;;2.97;;
61344;SDS011;47216;42.656;23.232;2023-08-31T08:16:38;5.10;;;2.50;;
61344;SDS011;47216;42.656;23.232;2023-08-31T08:19:05;7.93;;;2.97;;
61344;SDS011;47216;42.656;23.232;2023-08-31T08:21:33;8.80;;;3.83;;
61344;SDS011;47216;42.656;23.232;2023-08-31T08:24:00;8.43;;;3.17;;
61344;SDS011;47216;42.656;23.232;2023-08-31T08:26:28;9.00;;;3.83;;
61344;SDS011;47216;42.656;23.232;2023-08-31T08:28:55;5.75;;;3.15;;
61344;SDS011;47216;42.656;23.232;2023-08-31T08:31:21;7.32;;;2.83;;
61344;SDS011;47216;42.656;23.232;2023-08-31T08:33:49;5.78;;;3.20;;
61344;SDS011;47216;42.656;23.232;2023-08-31T08:36:16;6.55;;;3.00;;
61344;SDS011;47216;42.656;23.232;2023-08-31T08:38:43;4.88;;;3.25;;
61344;SDS011;47216;42.656;23.232;2023-08-31T08:41:10;5.72;;;3.17;;
61344;SDS011;47216;42.656;23.232;2023-08-31T08:43:36;5.22;;;3.10;;
61344;SDS011;47216;42.656;23.232;2023-08-31T08:46:06;5.20;;;2.92;;
61344;SDS011;47216;42.656;23.232;2023-08-31T08:48:33;6.70;;;3.47;;
61344;SDS011;47216;42.656;23.232;2023-08-31T08:51:02;4.85;;;3.15;;
61344;SDS011;47216;42.656;23.232;2023-08-31T08:53:30;4.00;;;2.72;;
61344;SDS011;47216;42.656;23.232;2023-08-31T08:55:56;6.13;;;3.40;;
61344;SDS011;47216;42.656;23.232;2023-08-31T08:58:24;5.22;;;3.03;;
61344;SDS011;47216;42.656;23.232;2023-08-31T09:00:51;5.53;;;3.08;;
61344;SDS011;47216;42.656;23.232;2023-08-31T09:03:20;4.13;;;2.97;;
61344;SDS011;47216;42.656;23.232;2023-08-31T09:05:47;4.50;;;3.05;;
61344;SDS011;47216;42.656;23.232;2023-08-31T09:08:15;4.93;;;3.17;;
61344;SDS011;47216;42.656;23.232;2023-08-31T09:10:42;5.38;;;3.30;;
61344;SDS011;47216;42.656;23.232;2023-08-31T09:13:10;5.30;;;2.65;;
61344;SDS011;47216;42.656;23.232;2023-08-31T09:15:41;5.95;;;3.20;;
61344;SDS011;47216;42.656;23.232;2023-08-31T09:18:13;6.90;;;3.35;;
61344;SDS011;47216;42.656;23.232;2023-08-31T09:20:44;5.32;;;2.88;;
61344;SDS011;47216;42.656;23.232;2023-08-31T09:23:12;4.95;;;2.90;;
61344;SDS011;47216;42.656;23.232;2023-08-31T09:25:43;5.53;;;2.95;;
61344;SDS011;47216;42.656;23.232;2023-08-31T09:28:13;4.03;;;3.03;;
61344;SDS011;47216;42.656;23.232;2023-08-31T09:30:41;6.20;;;2.97;;
61344;SDS011;47216;42.656;23.232;2023-08-31T09:33:08;11.98;;;3.80;;
61344;SDS011;47216;42.656;23.232;2023-08-31T09:35:39;6.53;;;3.30;;
61344;SDS011;47216;42.656;23.232;2023-08-31T09:38:09;6.80;;;3.17;;
61344;SDS011;47216;42.656;23.232;2023-08-31T09:40:36;5.47;;;3.15;;
61344;SDS011;47216;42.656;23.232;2023-08-31T09:43:05;4.35;;;3.20;;
61344;SDS011;47216;42.656;23.232;2023-08-31T09:45:32;6.72;;;3.50;;
61344;SDS011;47216;42.656;23.232;2023-08-31T09:48:00;6.85;;;3.35;;
61344;SDS011;47216;42.656;23.232;2023-08-31T09:50:28;5.00;;;3.60;;
61344;SDS011;47216;42.656;23.232;2023-08-31T09:52:56;7.68;;;3.55;;
61344;SDS011;47216;42.656;23.232;2023-08-31T09:55:27;4.78;;;3.17;;
61344;SDS011;47216;42.656;23.232;2023-08-31T09:57:56;6.15;;;3.28;;
61344;SDS011;47216;42.656;23.232;2023-08-31T10:00:25;5.00;;;3.03;;
61344;SDS011;47216;42.656;23.232;2023-08-31T10:02:52;5.18;;;3.20;;
61344;SDS011;47216;42.656;23.232;2023-08-31T10:05:22;7.22;;;3.72;;
61344;SDS011;47216;42.656;23.232;2023-08-31T10:07:49;6.13;;;3.50;;
61344;SDS011;47216;42.656;23.232;2023-08-31T10:10:17;6.60;;;3.78;;
61344;SDS011;47216;42.656;23.232;2023-08-31T10:12:45;5.88;;;3.75;;
61344;SDS011;47216;42.656;23.232;2023-08-31T10:15:14;4.53;;;3.38;;
61344;SDS011;47216;42.656;23.232;2023-08-31T10:17:43;6.07;;;3.75;;
61344;SDS011;47216;42.656;23.232;2023-08-31T10:20:10;5.20;;;3.45;;
61344;SDS011;47216;42.656;23.232;2023-08-31T10:22:38;5.25;;;3.30;;
61344;SDS011;47216;42.656;23.232;2023-08-31T10:25:05;5.20;;;3.40;;
61344;SDS011;47216;42.656;23.232;2023-08-31T10:27:36;5.82;;;3.60;;
61344;SDS011;47216;42.656;23.232;2023-08-31T10:30:20;8.35;;;3.90;;
61344;SDS011;47216;42.656;23.232;2023-08-31T10:35:48;4.15;;;3.00;;
61344;SDS011;47216;42.656;23.232;2023-08-31T10:38:17;5.70;;;3.17;;
61344;SDS011;47216;42.656;23.232;2023-08-31T10:41:00;5.90;;;2.80;;
61344;SDS011;47216;42.656;23.232;2023-08-31T10:43:47;7.55;;;3.03;;
61344;SDS011;47216;42.656;23.232;2023-08-31T10:46:25;6.20;;;3.05;;
61344;SDS011;47216;42.656;23.232;2023-08-31T10:48:56;5.07;;;2.97;;
61344;SDS011;47216;42.656;23.232;2023-08-31T10:51:25;4.47;;;2.88;;
61344;SDS011;47216;42.656;23.232;2023-08-31T10:54:03;4.70;;;3.08;;
61344;SDS011;47216;42.656;23.232;2023-08-31T10:56:31;4.05;;;2.72;;
61344;SDS011;47216;42.656;23.232;2023-08-31T10:58:58;3.67;;;2.63;;
61344;SDS011;47216;42.656;23.232;2023-08-31T11:04:19;6.55;;;3.22;;
61344;SDS011;47216;42.656;23.232;2023-08-31T11:06:46;3.95;;;2.55;;
61344;SDS011;47216;42.656;23.232;2023-08-31T11:09:18;5.85;;;2.75;;
61344;SDS011;47216;42.656;23.232;2023-08-31T11:11:46;10.73;;;2.63;;
61344;SDS011;47216;42.656;23.232;2023-08-31T11:14:13;5.13;;;2.80;;
61344;SDS011;47216;42.656;23.232;2023-08-31T11:16:40;4.93;;;2.40;;
61344;SDS011;47216;42.656;23.232;2023-08-31T11:19:07;4.47;;;2.63;;
61344;SDS011;47216;42.656;23.232;2023-08-31T11:21:37;4.65;;;2.72;;
61344;SDS011;47216;42.656;23.232;2023-08-31T11:24:04;5.20;;;2.75;;
61344;SDS011;47216;42.656;23.232;2023-08-31T11:26:31;6.40;;;2.65;;
61344;SDS011;47216;42.656;23.232;2023-08-31T11:28:59;5.80;;;2.95;;
61344;SDS011;47216;42.656;23.232;2023-08-31T11:31:26;3.42;;;2.47;;
61344;SDS011;47216;42.656;23.232;2023-08-31T11:33:53;3.10;;;2.05;;
61344;SDS011;47216;42.656;23.232;2023-08-31T11:36:21;4.38;;;2.42;;
61344;SDS011;47216;42.656;23.232;2023-08-31T11:38:49;3.03;;;2.28;;
61344;SDS011;47216;42.656;23.232;2023-08-31T11:41:16;4.75;;;2.58;;
61344;SDS011;47216;42.656;23.232;2023-08-31T11:43:43;4.00;;;2.67;;
61344;SDS011;47216;42.656;23.232;2023-08-31T11:46:10;3.45;;;2.45;;
61344;SDS011;47216;42.656;23.232;2023-08-31T11:48:37;5.63;;;2.72;;
61344;SDS011;47216;42.656;23.232;2023-08-31T11:51:05;4.55;;;2.72;;
61344;SDS011;47216;42.656;23.232;2023-08-31T11:53:32;3.90;;;2.63;;
61344;SDS011;47216;42.656;23.232;2023-08-31T11:56:02;4.60;;;2.50;;
61344;SDS011;47216;42.656;23.232;2023-08-31T11:58:29;4.43;;;2.78;;
61344;SDS011;47216;42.656;23.232;2023-08-31T12:00:57;4.10;;;2.28;;
61344;SDS011;47216;42.656;23.232;2023-08-31T12:03:24;3.47;;;2.30;;
61344;SDS011;47216;42.656;23.232;2023-08-31T12:05:52;3.20;;;2.53;;
61344;SDS011;47216;42.656;23.232;2023-08-31T12:08:25;3.80;;;2.67;;
61344;SDS011;47216;42.656;23.232;2023-08-31T12:10:52;4.00;;;2.50;;
61344;SDS011;47216;42.656;23.232;2023-08-31T12:13:21;4.75;;;2.63;;
61344;SDS011;47216;42.656;23.232;2023-08-31T12:15:53;5.47;;;2.78;;
61344;SDS011;47216;42.656;23.232;2023-08-31T12:18:21;6.82;;;2.60;;
61344;SDS011;47216;42.656;23.232;2023-08-31T12:20:49;4.65;;;2.22;;
61344;SDS011;47216;42.656;23.232;2023-08-31T12:23:17;3.70;;;2.22;;
61344;SDS011;47216;42.656;23.232;2023-08-31T12:25:47;5.00;;;2.50;;
61344;SDS011;47216;42.656;23.232;2023-08-31T12:28:15;5.47;;;2.50;;
61344;SDS011;47216;42.656;23.232;2023-08-31T12:30:46;4.05;;;2.25;;
61344;SDS011;47216;42.656;23.232;2023-08-31T12:33:14;4.93;;;2.45;;
61344;SDS011;47216;42.656;23.232;2023-08-31T12:35:41;4.40;;;1.85;;
61344;SDS011;47216;42.656;23.232;2023-08-31T12:38:08;4.60;;;2.78;;
61344;SDS011;47216;42.656;23.232;2023-08-31T12:40:34;11.45;;;2.17;;
61344;SDS011;47216;42.656;23.232;2023-08-31T12:43:03;2.55;;;1.92;;
61344;SDS011;47216;42.656;23.232;2023-08-31T12:45:30;6.45;;;2.58;;
61344;SDS011;47216;42.656;23.232;2023-08-31T12:47:59;6.40;;;2.50;;
61344;SDS011;47216;42.656;23.232;2023-08-31T12:50:26;3.60;;;2.33;;
61344;SDS011;47216;42.656;23.232;2023-08-31T12:52:53;3.67;;;2.40;;
61344;SDS011;47216;42.656;23.232;2023-08-31T12:55:20;5.32;;;2.78;;
61344;SDS011;47216;42.656;23.232;2023-08-31T12:57:46;5.53;;;2.53;;
61344;SDS011;47216;42.656;23.232;2023-08-31T13:00:14;4.57;;;2.70;;
61344;SDS011;47216;42.656;23.232;2023-08-31T13:02:42;3.58;;;2.22;;
61344;SDS011;47216;42.656;23.232;2023-08-31T13:05:11;5.32;;;2.40;;
61344;SDS011;47216;42.656;23.232;2023-08-31T13:07:38;4.05;;;2.22;;
61344;SDS011;47216;42.656;23.232;2023-08-31T13:10:05;3.85;;;2.10;;
61344;SDS011;47216;42.656;23.232;2023-08-31T13:12:33;7.38;;;2.28;;
61344;SDS011;47216;42.656;23.232;2023-08-31T13:15:00;3.10;;;2.08;;
61344;SDS011;47216;42.656;23.232;2023-08-31T13:17:28;3.72;;;2.33;;
61344;SDS011;47216;42.656;23.232;2023-08-31T13:19:55;16.73;;;9.57;;
61344;SDS011;47216;42.656;23.232;2023-08-31T13:22:24;18.05;;;9.23;;
61344;SDS011;47216;42.656;23.232;2023-08-31T13:24:51;6.82;;;2.78;;
61344;SDS011;47216;42.656;23.232;2023-08-31T13:27:18;4.63;;;2.35;;
61344;SDS011;47216;42.656;23.232;2023-08-31T13:29:45;3.47;;;2.30;;
61344;SDS011;47216;42.656;23.232;2023-08-31T13:32:12;5.20;;;3.22;;
61344;SDS011;47216;42.656;23.232;2023-08-31T13:34:39;4.95;;;2.60;;
61344;SDS011;47216;42.656;23.232;2023-08-31T13:37:05;5.80;;;2.63;;
61344;SDS011;47216;42.656;23.232;2023-08-31T13:39:34;3.45;;;2.25;;
61344;SDS011;47216;42.656;23.232;2023-08-31T13:42:05;16.85;;;2.90;;
61344;SDS011;47216;42.656;23.232;2023-08-31T13:44:32;19.73;;;2.83;;
61344;SDS011;47216;42.656;23.232;2023-08-31T13:47:00;3.33;;;2.08;;
61344;SDS011;47216;42.656;23.232;2023-08-31T13:49:28;5.70;;;2.60;;
61344;SDS011;47216;42.656;23.232;2023-08-31T13:51:55;10.13;;;2.05;;
61344;SDS011;47216;42.656;23.232;2023-08-31T13:54:22;8.27;;;2.28;;
61344;SDS011;47216;42.656;23.232;2023-08-31T13:56:50;5.05;;;2.30;;
61344;SDS011;47216;42.656;23.232;2023-08-31T13:59:16;4.75;;;2.60;;
61344;SDS011;47216;42.656;23.232;2023-08-31T14:01:43;6.65;;;2.30;;
61344;SDS011;47216;42.656;23.232;2023-08-31T14:04:10;3.95;;;2.38;;
61344;SDS011;47216;42.656;23.232;2023-08-31T14:06:37;7.18;;;2.58;;
61344;SDS011;47216;42.656;23.232;2023-08-31T14:09:04;6.28;;;2.92;;
61344;SDS011;47216;42.656;23.232;2023-08-31T14:11:33;4.45;;;2.47;;
61344;SDS011;47216;42.656;23.232;2023-08-31T14:14:02;5.05;;;2.45;;
61344;SDS011;47216;42.656;23.232;2023-08-31T14:16:31;4.15;;;2.20;;
61344;SDS011;47216;42.656;23.232;2023-08-31T14:18:58;5.30;;;2.60;;
61344;SDS011;47216;42.656;23.232;2023-08-31T14:21:25;5.15;;;2.38;;
61344;SDS011;47216;42.656;23.232;2023-08-31T14:23:52;3.38;;;2.30;;
61344;SDS011;47216;42.656;23.232;2023-08-31T14:26:20;7.07;;;2.55;;
61344;SDS011;47216;42.656;23.232;2023-08-31T14:28:48;4.68;;;2.15;;
61344;SDS011;47216;42.656;23.232;2023-08-31T14:31:17;6.38;;;2.47;;
61344;SDS011;47216;42.656;23.232;2023-08-31T14:33:43;29.50;;;3.28;;
61344;SDS011;47216;42.656;23.232;2023-08-31T14:36:11;9.25;;;3.63;;
61344;SDS011;47216;42.656;23.232;2023-08-31T14:38:39;7.00;;;2.60;;
61344;SDS011;47216;42.656;23.232;2023-08-31T14:41:05;10.75;;;2.92;;
61344;SDS011;47216;42.656;23.232;2023-08-31T14:43:32;5.47;;;2.38;;